createdAt,value
2022-08-24T00:00:26.034Z,77.57
2022-08-24T00:02:52.840Z,84.18
2022-08-24T00:05:22.767Z,78.82
2022-08-24T00:07:50.469Z,85.30
2022-08-24T00:10:18.131Z,81.18
2022-08-24T00:12:44.859Z,80.45
2022-08-24T00:15:12.930Z,78.15
2022-08-24T00:17:40.087Z,77.60
2022-08-24T00:20:09.150Z,83.30
2022-08-24T00:22:36.051Z,83.65
2022-08-24T00:25:03.881Z,77.75
2022-08-24T00:27:31.012Z,73.57
2022-08-24T00:29:57.808Z,84.55
2022-08-24T00:32:24.455Z,76.85
2022-08-24T00:34:58.232Z,75.13
2022-08-24T00:37:26.996Z,77.55
2022-08-24T00:39:53.713Z,77.68
2022-08-24T00:42:20.864Z,73.97
2022-08-24T00:44:47.670Z,74.43
2022-08-24T00:47:21.235Z,83.32
2022-08-24T00:49:58.047Z,82.57
2022-08-24T00:52:29.535Z,73.70
2022-08-24T00:55:01.121Z,79.65
2022-08-24T00:57:34.680Z,74.43
2022-08-24T01:00:11.334Z,81.95
2022-08-24T01:02:43.816Z,76.43
2022-08-24T01:05:12.348Z,80.88
2022-08-24T01:07:40.127Z,76.32
2022-08-24T01:10:16.319Z,82.97
2022-08-24T01:12:59.926Z,82.32
2022-08-24T01:15:35.068Z,74.65
2022-08-24T01:18:21.473Z,79.65
2022-08-24T01:23:41.054Z,83.10
2022-08-24T01:26:12.190Z,75.13
2022-08-24T01:28:44.162Z,77.53
2022-08-24T01:31:12.139Z,80.25
2022-08-24T01:33:39.480Z,78.95
2022-08-24T01:36:28.371Z,78.18
2022-08-24T01:38:58.338Z,74.25
2022-08-24T01:41:28.924Z,78.93
2022-08-24T01:43:58.139Z,76.32
2022-08-24T01:46:25.869Z,73.70
2022-08-24T01:48:53.038Z,77.32
2022-08-24T01:51:21.155Z,74.63
2022-08-24T01:53:48.474Z,76.18
2022-08-24T01:56:15.206Z,77.40
2022-08-24T01:58:48.517Z,81.18
2022-08-24T02:01:17.775Z,72.93
2022-08-24T02:03:45.868Z,81.22
2022-08-24T02:06:19.774Z,69.90
2022-08-24T02:08:47.092Z,72.30
2022-08-24T02:11:15.729Z,79.28
2022-08-24T02:13:42.700Z,74.70
2022-08-24T02:16:09.731Z,72.68
2022-08-24T02:18:40.553Z,74.75
2022-08-24T02:21:12.089Z,78.93
2022-08-24T02:23:40.473Z,75.65
2022-08-24T02:26:08.776Z,68.60
2022-08-24T02:28:35.808Z,78.15
2022-08-24T02:31:05.905Z,71.93
2022-08-24T02:33:34.890Z,75.10
2022-08-24T02:36:02.521Z,71.95
2022-08-24T02:38:30.829Z,78.90
2022-08-24T02:40:58.093Z,70.20
2022-08-24T02:43:26.263Z,72.55
2022-08-24T02:45:53.180Z,70.13
2022-08-24T02:48:22.251Z,81.00
2022-08-24T02:50:51.651Z,77.22
2022-08-24T02:53:20.847Z,78.07
2022-08-24T02:55:48.240Z,71.38
2022-08-24T02:58:17.500Z,78.80
2022-08-24T03:00:48.180Z,74.65
2022-08-24T03:03:17.572Z,74.40
2022-08-24T03:05:44.533Z,76.43
2022-08-24T03:08:11.236Z,74.80
2022-08-24T03:10:38.432Z,75.28
2022-08-24T03:13:05.978Z,69.47
2022-08-24T03:15:32.740Z,66.43
2022-08-24T03:17:59.579Z,69.68
2022-08-24T03:20:27.200Z,70.60
2022-08-24T03:22:54.155Z,73.15
2022-08-24T03:25:24.607Z,72.60
2022-08-24T03:27:52.096Z,69.05
2022-08-24T03:30:19.315Z,71.30
2022-08-24T03:32:48.072Z,70.85
2022-08-24T03:35:16.856Z,71.38
2022-08-24T03:37:43.820Z,69.45
2022-08-24T03:40:24.997Z,67.05
2022-08-24T03:42:55.306Z,67.30
2022-08-24T03:45:22.993Z,70.00
2022-08-24T03:47:50.033Z,71.13
2022-08-24T03:50:16.973Z,67.85
2022-08-24T03:52:44.432Z,74.10
2022-08-24T03:55:11.254Z,69.43
2022-08-24T03:57:38.106Z,71.72
2022-08-24T04:00:08.703Z,74.95
2022-08-24T04:02:41.626Z,70.75
2022-08-24T04:05:12.579Z,67.63
2022-08-24T04:07:40.834Z,75.68
2022-08-24T04:10:08.318Z,74.38
2022-08-24T04:12:35.086Z,66.93
2022-08-24T04:15:01.958Z,69.93
2022-08-24T04:17:30.395Z,71.95
2022-08-24T04:19:58.702Z,74.80
2022-08-24T04:22:34.328Z,66.97
2022-08-24T04:25:08.922Z,68.15
2022-08-24T04:27:37.964Z,77.70
2022-08-24T04:30:06.181Z,69.32
2022-08-24T04:32:43.423Z,66.38
2022-08-24T04:35:10.637Z,68.78
2022-08-24T04:37:38.181Z,71.18
2022-08-24T04:40:07.417Z,70.35
2022-08-24T04:42:40.276Z,66.85
2022-08-24T04:45:08.420Z,67.88
2022-08-24T04:47:35.138Z,72.93
2022-08-24T04:50:01.822Z,63.50
2022-08-24T04:52:29.224Z,70.60
2022-08-24T04:54:56.485Z,70.82
2022-08-24T04:57:25.723Z,66.95
2022-08-24T04:59:56.585Z,63.15
2022-08-24T05:02:24.578Z,70.20
2022-08-24T05:04:54.112Z,68.80
2022-08-24T05:07:21.968Z,63.63
2022-08-24T05:09:52.396Z,66.00
2022-08-24T05:12:20.883Z,71.57
2022-08-24T05:14:55.869Z,72.10
2022-08-24T05:17:23.276Z,69.38
2022-08-24T05:19:50.723Z,71.85
2022-08-24T05:22:17.898Z,72.43
2022-08-24T05:24:48.794Z,68.20
2022-08-24T05:27:15.985Z,65.45
2022-08-24T05:29:46.940Z,72.22
2022-08-24T05:32:14.116Z,63.47
2022-08-24T05:34:41.529Z,63.72
2022-08-24T05:37:08.728Z,69.15
2022-08-24T05:39:46.157Z,73.35
2022-08-24T05:42:13.736Z,66.32
2022-08-24T05:44:46.529Z,71.88
2022-08-24T05:47:18.602Z,67.88
2022-08-24T05:49:46.530Z,67.05
2022-08-24T05:52:13.198Z,76.32
2022-08-24T05:54:40.884Z,65.43
2022-08-24T05:57:10.141Z,67.75
2022-08-24T05:59:44.094Z,66.15
2022-08-24T06:02:16.636Z,66.22
2022-08-24T06:04:45.037Z,69.43
2022-08-24T06:07:12.671Z,72.57
2022-08-24T06:09:43.378Z,67.35
2022-08-24T06:12:12.116Z,73.15
2022-08-24T06:14:41.183Z,70.07
2022-08-24T06:17:09.254Z,76.10
2022-08-24T06:19:37.026Z,70.05
2022-08-24T06:22:03.710Z,70.70
2022-08-24T06:24:49.696Z,76.65
2022-08-24T06:27:25.460Z,69.93
2022-08-24T06:30:03.784Z,74.85
2022-08-24T06:32:53.276Z,71.00
2022-08-24T06:35:37.127Z,68.10
2022-08-24T06:38:04.500Z,72.20
2022-08-24T06:40:32.331Z,70.32
2022-08-24T06:43:03.649Z,71.10
2022-08-24T06:45:53.330Z,73.70
2022-08-24T06:48:23.764Z,73.43
2022-08-24T06:50:52.309Z,72.93
2022-08-24T06:53:19.655Z,80.75
2022-08-24T06:55:54.599Z,83.05
2022-08-24T06:58:22.281Z,76.43
2022-08-24T07:00:49.772Z,83.60
2022-08-24T07:03:18.835Z,74.35
2022-08-24T07:05:57.844Z,76.90
2022-08-24T07:08:35.810Z,82.45
2022-08-24T07:11:03.014Z,85.60
2022-08-24T07:13:31.184Z,80.70
2022-08-24T07:15:59.062Z,83.05
2022-08-24T07:18:28.905Z,82.43
2022-08-24T07:20:56.304Z,81.10
2022-08-24T07:23:42.220Z,87.38
2022-08-24T07:26:21.102Z,85.30
2022-08-24T07:28:56.161Z,81.32
2022-08-24T07:31:23.392Z,87.30
2022-08-24T07:34:06.580Z,90.15
2022-08-24T07:36:34.140Z,86.97
2022-08-24T07:39:01.302Z,87.15
2022-08-24T07:42:02.568Z,89.35
2022-08-24T07:44:17.466Z,87.13
2022-08-24T07:46:45.097Z,85.78
2022-08-24T07:49:33.270Z,86.45
2022-08-24T07:52:04.667Z,92.10
2022-08-24T07:54:31.553Z,91.38
2022-08-24T07:57:00.223Z,95.47
2022-08-24T07:59:27.339Z,95.50
2022-08-24T08:01:54.963Z,89.30
2022-08-24T08:04:25.089Z,97.93
2022-08-24T08:06:53.702Z,101.03
2022-08-24T08:09:21.522Z,93.38
2022-08-24T08:11:49.435Z,97.75
2022-08-24T08:14:16.225Z,89.10
2022-08-24T08:16:43.136Z,90.47
2022-08-24T08:19:10.681Z,93.28
2022-08-24T08:22:03.535Z,98.93
2022-08-24T08:24:35.383Z,94.80
2022-08-24T08:27:03.000Z,93.25
2022-08-24T08:29:36.537Z,93.95
2022-08-24T08:32:04.244Z,95.63
2022-08-24T08:34:31.534Z,99.75
2022-08-24T08:36:58.989Z,98.63
2022-08-24T08:39:27.285Z,91.40
2022-08-24T08:42:14.360Z,92.10
2022-08-24T08:45:18.673Z,91.75
2022-08-24T08:48:22.894Z,97.85
2022-08-24T08:51:11.811Z,92.75
2022-08-24T08:53:46.808Z,101.13
2022-08-24T08:56:35.684Z,97.22
2022-08-24T08:59:15.139Z,96.43
2022-08-24T09:02:15.203Z,94.38
2022-08-24T09:05:25.999Z,96.20
2022-08-24T09:08:31.908Z,97.55
2022-08-24T09:11:32.391Z,100.40
2022-08-24T09:14:08.716Z,102.35
2022-08-24T09:17:13.353Z,99.93
2022-08-24T09:19:55.260Z,97.95
2022-08-24T09:22:22.370Z,99.93
2022-08-24T09:24:55.109Z,101.18
2022-08-24T09:28:06.078Z,98.30
2022-08-24T09:30:58.119Z,97.97
2022-08-24T09:33:35.563Z,99.20
2022-08-24T09:36:08.412Z,97.40
2022-08-24T09:38:56.364Z,97.57
2022-08-24T09:41:32.132Z,95.85
2022-08-24T09:44:29.368Z,100.88
2022-08-24T09:47:02.179Z,97.95
2022-08-24T09:49:57.650Z,100.50
2022-08-24T09:52:50.623Z,100.50
2022-08-24T09:55:32.386Z,97.47
2022-08-24T09:58:01.575Z,96.65
2022-08-24T10:00:40.197Z,103.07
2022-08-24T10:03:33.949Z,101.03
2022-08-24T10:06:16.938Z,102.38
2022-08-24T10:09:11.512Z,100.40
2022-08-24T10:12:05.093Z,102.82
2022-08-24T10:14:53.581Z,97.72
2022-08-24T10:17:38.932Z,96.28
2022-08-24T10:20:16.839Z,97.78
2022-08-24T10:23:26.711Z,97.07
2022-08-24T10:26:00.860Z,100.60
2022-08-24T10:28:39.587Z,146.98
2022-08-24T10:31:25.792Z,97.15
2022-08-24T10:34:18.728Z,94.18
2022-08-24T10:36:48.277Z,95.07
2022-08-24T10:39:39.963Z,98.82
2022-08-24T10:42:44.171Z,96.75
2022-08-24T10:45:29.061Z,96.22
2022-08-24T10:47:55.697Z,94.03
2022-08-24T10:50:50.556Z,97.75
2022-08-24T10:53:30.318Z,99.35
2022-08-24T10:56:21.445Z,94.93
2022-08-24T10:59:25.524Z,97.80
2022-08-24T11:02:09.627Z,99.38
2022-08-24T11:04:40.567Z,94.78
2022-08-24T11:07:14.913Z,99.28
2022-08-24T11:09:53.423Z,146.50
2022-08-24T11:12:27.493Z,97.10
2022-08-24T11:14:57.409Z,96.20
2022-08-24T11:17:27.132Z,97.30
2022-08-24T11:19:54.423Z,96.32
2022-08-24T11:22:37.833Z,98.80
2022-08-24T11:25:22.451Z,98.13
2022-08-24T11:27:52.872Z,97.63
2022-08-24T11:30:19.549Z,97.50
2022-08-24T11:33:02.852Z,99.32
2022-08-24T11:35:32.452Z,99.13
2022-08-24T11:38:17.263Z,97.55
2022-08-24T11:40:52.332Z,97.90
2022-08-24T11:43:29.308Z,95.43
2022-08-24T11:46:08.263Z,99.60
2022-08-24T11:48:43.757Z,94.70
2022-08-24T11:51:29.239Z,96.80
2022-08-24T11:54:24.591Z,96.35
2022-08-24T11:57:19.437Z,145.80
2022-08-24T11:59:58.870Z,97.00
2022-08-24T12:02:32.487Z,98.40
2022-08-24T12:05:17.580Z,96.07
2022-08-24T12:07:51.826Z,95.72
2022-08-24T12:10:32.655Z,93.50
2022-08-24T12:13:09.249Z,93.45
2022-08-24T12:15:51.987Z,93.93
2022-08-24T12:18:25.377Z,93.20
2022-08-24T12:20:53.785Z,97.70
2022-08-24T12:23:52.791Z,93.88
2022-08-24T12:26:30.113Z,95.07
2022-08-24T12:29:02.393Z,94.47
2022-08-24T12:31:38.126Z,92.68
2022-08-24T12:34:12.599Z,94.18
2022-08-24T12:36:39.806Z,93.77
2022-08-24T12:39:14.922Z,95.50
2022-08-24T12:44:31.369Z,92.80
2022-08-24T12:46:58.208Z,94.95
2022-08-24T12:49:40.038Z,93.68
2022-08-24T12:52:49.161Z,91.80
2022-08-24T12:55:16.285Z,90.50
2022-08-24T12:58:31.007Z,93.55
2022-08-24T13:00:52.905Z,90.60
2022-08-24T13:03:30.952Z,87.63
2022-08-24T13:06:01.058Z,92.57
2022-08-24T13:08:43.597Z,93.32
2022-08-24T13:11:28.699Z,89.50
2022-08-24T13:13:55.273Z,91.78
2022-08-24T13:16:47.634Z,142.55
2022-08-24T13:19:23.200Z,91.60
2022-08-24T13:22:00.746Z,90.20
2022-08-24T13:24:30.456Z,93.40
2022-08-24T13:27:12.657Z,95.57
2022-08-24T13:29:46.851Z,91.45
2022-08-24T13:32:38.937Z,93.03
2022-08-24T13:35:36.785Z,93.22
2022-08-24T13:38:34.523Z,92.00
2022-08-24T13:41:11.673Z,92.25
2022-08-24T13:43:50.874Z,93.22
2022-08-24T13:46:47.903Z,89.85
2022-08-24T13:49:36.402Z,93.32
2022-08-24T13:52:29.227Z,90.53
2022-08-24T13:55:20.850Z,89.82
2022-08-24T13:58:13.150Z,87.05
2022-08-24T14:00:49.258Z,89.57
2022-08-24T14:03:24.799Z,88.78
2022-08-24T14:06:21.379Z,89.63
2022-08-24T14:09:00.697Z,87.82
2022-08-24T14:11:54.881Z,90.60
2022-08-24T14:15:00.337Z,90.43
2022-08-24T14:18:15.233Z,140.38
2022-08-24T14:20:53.036Z,88.70
2022-08-24T14:23:52.546Z,89.03
2022-08-24T14:26:34.627Z,89.18
2022-08-24T14:29:19.606Z,92.97
2022-08-24T14:32:12.095Z,91.28
2022-08-24T14:35:12.384Z,86.88
2022-08-24T14:37:58.021Z,90.90
2022-08-24T14:40:38.314Z,89.70
2022-08-24T14:43:10.921Z,88.25
2022-08-24T14:45:53.830Z,88.97
2022-08-24T14:48:39.715Z,87.10
2022-08-24T14:51:48.435Z,87.70
2022-08-24T14:54:53.598Z,86.63
2022-08-24T14:57:30.569Z,89.32
2022-08-24T15:00:15.223Z,84.85
2022-08-24T15:02:44.923Z,85.87
2022-08-24T15:05:32.740Z,86.38
2022-08-24T15:08:08.614Z,89.57
2022-08-24T15:10:48.293Z,90.70
2022-08-24T15:13:44.345Z,85.38
2022-08-24T15:16:16.845Z,86.05
2022-08-24T15:18:54.516Z,87.28
2022-08-24T15:21:47.824Z,85.38
2022-08-24T15:24:39.994Z,86.07
2022-08-24T15:27:10.343Z,86.53
2022-08-24T15:29:52.975Z,86.55
2022-08-24T15:32:22.308Z,86.88
2022-08-24T15:34:58.436Z,86.03
2022-08-24T15:37:31.887Z,83.70
2022-08-24T15:39:59.622Z,85.50
2022-08-24T15:42:29.523Z,88.47
2022-08-24T15:45:01.102Z,87.45
2022-08-24T15:47:46.526Z,87.32
2022-08-24T15:50:22.703Z,88.43
2022-08-24T15:53:02.428Z,91.25
2022-08-24T15:55:40.653Z,89.55
2022-08-24T15:58:19.904Z,87.88
2022-08-24T16:01:05.264Z,88.70
2022-08-24T16:03:49.943Z,85.75
2022-08-24T16:06:23.353Z,91.25
2022-08-24T16:09:20.467Z,91.82
2022-08-24T16:12:02.279Z,93.93
2022-08-24T16:14:39.890Z,97.13
2022-08-24T16:17:34.232Z,92.00
2022-08-24T16:20:06.007Z,93.40
2022-08-24T16:22:36.711Z,95.40
2022-08-24T16:25:15.394Z,95.72
2022-08-24T16:28:09.920Z,93.50
2022-08-24T16:30:43.055Z,93.10
2022-08-24T16:33:11.120Z,93.88
2022-08-24T16:35:38.796Z,93.93
2022-08-24T16:38:05.722Z,98.88
2022-08-24T16:40:34.569Z,99.00
2022-08-24T16:43:01.432Z,93.70
2022-08-24T16:45:28.875Z,98.10
2022-08-24T16:47:56.705Z,99.50
2022-08-24T16:50:27.508Z,99.85
2022-08-24T16:52:54.435Z,97.15
2022-08-24T16:55:21.413Z,93.18
2022-08-24T16:57:48.310Z,106.35
2022-08-24T17:00:18.076Z,94.60
2022-08-24T17:02:48.213Z,94.68
2022-08-24T17:05:16.881Z,95.20
2022-08-24T17:07:44.310Z,96.95
2022-08-24T17:10:14.224Z,93.20
2022-08-24T17:12:41.302Z,98.00
2022-08-24T17:15:11.764Z,95.35
2022-08-24T17:17:39.941Z,91.85
2022-08-24T17:20:11.501Z,98.38
2022-08-24T17:22:38.548Z,93.72
2022-08-24T17:25:05.826Z,98.45
2022-08-24T17:27:34.275Z,95.68
2022-08-24T17:30:03.155Z,91.40
2022-08-24T17:32:29.825Z,92.72
2022-08-24T17:34:56.605Z,93.88
2022-08-24T17:37:23.709Z,92.25
2022-08-24T17:39:56.210Z,89.22
2022-08-24T17:42:47.271Z,91.25
2022-08-24T17:45:10.718Z,90.82
2022-08-24T17:47:37.390Z,90.47
2022-08-24T17:50:06.462Z,96.15
2022-08-24T17:52:33.210Z,96.07
2022-08-24T17:54:59.843Z,94.68
2022-08-24T17:57:27.496Z,86.15
2022-08-24T17:59:54.220Z,95.22
2022-08-24T18:02:21.025Z,90.63
2022-08-24T18:04:50.308Z,92.25
2022-08-24T18:07:30.613Z,98.38
2022-08-24T18:10:09.749Z,97.00
2022-08-24T18:12:36.915Z,96.55
2022-08-24T18:15:04.676Z,95.20
2022-08-24T18:17:38.993Z,92.97
2022-08-24T18:20:09.797Z,90.72
2022-08-24T18:22:36.786Z,94.60
2022-08-24T18:25:04.037Z,91.20
2022-08-24T18:27:32.943Z,88.97
2022-08-24T18:30:03.170Z,95.05
2022-08-24T18:32:31.015Z,96.25
2022-08-24T18:34:58.723Z,94.53
2022-08-24T18:37:25.495Z,90.25
2022-08-24T18:39:52.180Z,90.95
2022-08-24T18:42:18.936Z,94.80
2022-08-24T18:44:45.819Z,97.35
2022-08-24T18:47:12.504Z,90.10
2022-08-24T18:49:39.208Z,90.07
2022-08-24T18:52:09.312Z,97.55
2022-08-24T18:54:39.712Z,89.70
2022-08-24T18:57:07.227Z,99.30
2022-08-24T18:59:35.478Z,94.97
2022-08-24T19:02:33.622Z,91.30
2022-08-24T19:05:04.766Z,97.03
2022-08-24T19:07:33.625Z,98.65
2022-08-24T19:10:00.552Z,87.68
2022-08-24T19:12:29.112Z,90.22
2022-08-24T19:14:58.112Z,90.18
2022-08-24T19:17:25.124Z,92.25
2022-08-24T19:19:51.884Z,93.07
2022-08-24T19:22:19.168Z,95.80
2022-08-24T19:24:46.924Z,92.05
2022-08-24T19:27:13.769Z,91.97
2022-08-24T19:29:55.254Z,92.05
2022-08-24T19:32:25.793Z,98.25
2022-08-24T19:34:54.330Z,91.13
2022-08-24T19:37:22.128Z,89.82
2022-08-24T19:39:50.144Z,93.60
2022-08-24T19:42:18.690Z,93.80
2022-08-24T19:45:04.503Z,93.38
2022-08-24T19:47:34.502Z,92.25
2022-08-24T19:50:03.653Z,91.60
2022-08-24T19:52:32.890Z,95.18
2022-08-24T19:54:59.589Z,93.53
2022-08-24T19:57:49.006Z,92.55
2022-08-24T20:00:18.874Z,92.03
2022-08-24T20:02:46.693Z,91.20
2022-08-24T20:05:13.779Z,93.72
2022-08-24T20:07:41.970Z,88.72
2022-08-24T20:10:12.925Z,89.72
2022-08-24T20:12:40.649Z,93.88
2022-08-24T20:15:08.061Z,90.68
2022-08-24T20:17:35.724Z,95.90
2022-08-24T20:20:04.064Z,91.97
2022-08-24T20:22:30.745Z,94.85
2022-08-24T20:24:57.340Z,94.18
2022-08-24T20:27:26.498Z,93.60
2022-08-24T20:29:54.588Z,93.45
2022-08-24T20:32:22.056Z,92.68
2022-08-24T20:34:48.873Z,95.38
2022-08-24T20:37:22.501Z,94.65
2022-08-24T20:39:49.373Z,93.38
2022-08-24T20:42:21.369Z,91.97
2022-08-24T20:44:49.537Z,93.47
2022-08-24T20:47:17.245Z,91.28
2022-08-24T20:49:44.103Z,92.55
2022-08-24T20:52:10.788Z,91.18
2022-08-24T20:54:40.030Z,91.15
2022-08-24T20:57:14.734Z,95.38
2022-08-24T20:59:41.430Z,97.15
2022-08-24T21:02:08.133Z,91.35
2022-08-24T21:04:34.832Z,95.45
2022-08-24T21:07:01.640Z,92.43
2022-08-24T21:09:28.492Z,93.18
2022-08-24T21:11:55.351Z,97.22
2022-08-24T21:14:21.974Z,95.57
2022-08-24T21:16:48.733Z,96.43
2022-08-24T21:19:18.809Z,96.85
2022-08-24T21:21:47.008Z,95.00
2022-08-24T21:24:15.715Z,92.47
2022-08-24T21:26:42.686Z,97.50
2022-08-24T21:29:10.320Z,93.90
2022-08-24T21:31:37.586Z,93.65
2022-08-24T21:34:23.570Z,101.95
2022-08-24T21:36:52.562Z,93.65
2022-08-24T21:39:20.803Z,86.30
2022-08-24T21:41:47.715Z,94.15
2022-08-24T21:44:14.460Z,94.57
2022-08-24T21:46:41.385Z,91.93
2022-08-24T21:49:11.926Z,90.38
2022-08-24T21:51:39.794Z,93.35
2022-08-24T21:54:06.516Z,93.75
2022-08-24T21:56:34.523Z,95.75
2022-08-24T21:59:01.300Z,98.88
2022-08-24T22:01:28.867Z,89.30
2022-08-24T22:03:56.160Z,92.47
2022-08-24T22:06:22.970Z,93.05
2022-08-24T22:08:50.065Z,92.05
2022-08-24T22:11:19.329Z,98.72
2022-08-24T22:13:47.350Z,95.38
2022-08-24T22:16:14.230Z,92.53
2022-08-24T22:18:41.030Z,94.95
2022-08-24T22:21:13.072Z,89.57
2022-08-24T22:23:40.963Z,93.25
2022-08-24T22:26:09.125Z,96.72
2022-08-24T22:28:38.386Z,97.90
2022-08-24T22:31:30.038Z,91.57
2022-08-24T22:33:59.500Z,90.63
2022-08-24T22:36:28.155Z,92.65
2022-08-24T22:38:56.507Z,91.22
2022-08-24T22:41:23.604Z,95.25
2022-08-24T22:44:09.612Z,99.10
2022-08-24T22:46:37.074Z,93.07
2022-08-24T22:49:06.382Z,89.43
2022-08-24T22:51:33.934Z,92.18
2022-08-24T22:54:00.998Z,93.97
2022-08-24T22:56:31.273Z,91.82
2022-08-24T22:58:58.981Z,97.85
2022-08-24T23:01:32.535Z,90.60
2022-08-24T23:04:00.914Z,96.78
2022-08-24T23:06:28.448Z,93.72
2022-08-24T23:08:55.171Z,97.65
2022-08-24T23:11:27.121Z,88.88
2022-08-24T23:13:56.442Z,89.63
2022-08-24T23:16:25.722Z,89.57
2022-08-24T23:19:11.490Z,90.80
2022-08-24T23:21:38.213Z,91.38
2022-08-24T23:24:06.551Z,91.50
2022-08-24T23:26:33.255Z,91.18
2022-08-24T23:29:00.889Z,94.15
2022-08-24T23:31:27.803Z,92.35
2022-08-24T23:33:54.697Z,97.68
2022-08-24T23:36:23.679Z,95.03
2022-08-24T23:38:55.216Z,94.43
2022-08-24T23:41:34.344Z,93.78
2022-08-24T23:44:03.327Z,93.95
2022-08-24T23:46:30.961Z,92.07
2022-08-24T23:49:00.529Z,96.90
2022-08-24T23:51:30.211Z,89.13
2022-08-24T23:53:57.268Z,95.40
2022-08-24T23:56:31.824Z,88.57
2022-08-24T23:59:03.425Z,92.18
